sensor_id;sensor_type;location;lat;lon;timestamp;P1;durP1;ratioP1;P2;durP2;ratioP2
18693;SDS011;9477;51.414;10.362;2022-08-20T00:01:24;3.53;;;1.57;;
18693;SDS011;9477;51.414;10.362;2022-08-20T00:03:29;3.10;;;1.53;;
18693;SDS011;9477;51.414;10.362;2022-08-20T00:05:35;3.37;;;1.30;;
18693;SDS011;9477;51.414;10.362;2022-08-20T00:07:40;1.50;;;1.40;;
18693;SDS011;9477;51.414;10.362;2022-08-20T00:09:43;2.70;;;1.63;;
18693;SDS011;9477;51.414;10.362;2022-08-20T00:11:46;2.30;;;1.77;;
18693;SDS011;9477;51.414;10.362;2022-08-20T00:13:51;3.07;;;1.60;;
18693;SDS011;9477;51.414;10.362;2022-08-20T00:15:55;3.30;;;2.10;;
18693;SDS011;9477;51.414;10.362;2022-08-20T00:17:58;2.50;;;1.70;;
18693;SDS011;9477;51.414;10.362;2022-08-20T00:20:03;2.03;;;1.80;;
18693;SDS011;9477;51.414;10.362;2022-08-20T00:22:07;2.00;;;1.70;;
18693;SDS011;9477;51.414;10.362;2022-08-20T00:24:10;2.43;;;1.80;;
18693;SDS011;9477;51.414;10.362;2022-08-20T00:26:13;2.60;;;1.73;;
18693;SDS011;9477;51.414;10.362;2022-08-20T00:28:17;2.53;;;1.93;;
18693;SDS011;9477;51.414;10.362;2022-08-20T00:30:22;3.37;;;1.63;;
18693;SDS011;9477;51.414;10.362;2022-08-20T00:32:25;3.03;;;1.80;;
18693;SDS011;9477;51.414;10.362;2022-08-20T00:34:28;3.97;;;1.70;;
18693;SDS011;9477;51.414;10.362;2022-08-20T00:36:31;4.47;;;1.70;;
18693;SDS011;9477;51.414;10.362;2022-08-20T00:38:34;3.13;;;1.70;;
18693;SDS011;9477;51.414;10.362;2022-08-20T00:40:38;1.60;;;1.50;;
18693;SDS011;9477;51.414;10.362;2022-08-20T00:42:45;1.50;;;1.40;;
18693;SDS011;9477;51.414;10.362;2022-08-20T00:44:50;3.00;;;1.50;;
18693;SDS011;9477;51.414;10.362;2022-08-20T00:46:54;1.40;;;1.30;;
18693;SDS011;9477;51.414;10.362;2022-08-20T00:48:57;1.80;;;1.50;;
18693;SDS011;9477;51.414;10.362;2022-08-20T00:51:03;2.07;;;1.60;;
18693;SDS011;9477;51.414;10.362;2022-08-20T00:53:09;2.23;;;1.90;;
18693;SDS011;9477;51.414;10.362;2022-08-20T00:55:12;1.70;;;1.60;;
18693;SDS011;9477;51.414;10.362;2022-08-20T00:57:20;2.80;;;1.70;;
18693;SDS011;9477;51.414;10.362;2022-08-20T00:59:27;2.70;;;1.73;;
18693;SDS011;9477;51.414;10.362;2022-08-20T01:01:32;2.30;;;1.50;;
18693;SDS011;9477;51.414;10.362;2022-08-20T01:03:56;1.97;;;1.60;;
18693;SDS011;9477;51.414;10.362;2022-08-20T01:05:59;1.63;;;1.53;;
18693;SDS011;9477;51.414;10.362;2022-08-20T01:08:02;3.67;;;1.30;;
18693;SDS011;9477;51.414;10.362;2022-08-20T01:10:07;2.27;;;1.50;;
18693;SDS011;9477;51.414;10.362;2022-08-20T01:12:19;1.70;;;1.60;;
18693;SDS011;9477;51.414;10.362;2022-08-20T01:14:24;5.17;;;1.40;;
18693;SDS011;9477;51.414;10.362;2022-08-20T01:16:32;2.37;;;1.57;;
18693;SDS011;9477;51.414;10.362;2022-08-20T01:18:40;4.43;;;1.60;;
18693;SDS011;9477;51.414;10.362;2022-08-20T01:20:47;3.83;;;1.60;;
18693;SDS011;9477;51.414;10.362;2022-08-20T01:22:54;5.13;;;1.50;;
18693;SDS011;9477;51.414;10.362;2022-08-20T01:25:22;4.50;;;1.77;;
18693;SDS011;9477;51.414;10.362;2022-08-20T01:27:32;1.80;;;1.50;;
18693;SDS011;9477;51.414;10.362;2022-08-20T01:29:43;3.03;;;1.70;;
18693;SDS011;9477;51.414;10.362;2022-08-20T01:31:46;2.47;;;1.80;;
18693;SDS011;9477;51.414;10.362;2022-08-20T01:33:50;3.60;;;1.53;;
18693;SDS011;9477;51.414;10.362;2022-08-20T01:35:54;2.07;;;1.67;;
18693;SDS011;9477;51.414;10.362;2022-08-20T01:37:57;1.83;;;1.63;;
18693;SDS011;9477;51.414;10.362;2022-08-20T01:40:00;1.70;;;1.60;;
18693;SDS011;9477;51.414;10.362;2022-08-20T01:42:10;3.03;;;1.60;;
18693;SDS011;9477;51.414;10.362;2022-08-20T01:44:19;2.83;;;1.60;;
18693;SDS011;9477;51.414;10.362;2022-08-20T01:46:26;5.53;;;1.53;;
18693;SDS011;9477;51.414;10.362;2022-08-20T01:48:30;3.60;;;1.57;;
18693;SDS011;9477;51.414;10.362;2022-08-20T01:50:33;3.07;;;1.70;;
18693;SDS011;9477;51.414;10.362;2022-08-20T01:52:40;3.70;;;1.50;;
18693;SDS011;9477;51.414;10.362;2022-08-20T01:54:47;3.83;;;1.50;;
18693;SDS011;9477;51.414;10.362;2022-08-20T01:56:56;3.77;;;1.60;;
18693;SDS011;9477;51.414;10.362;2022-08-20T01:59:02;3.77;;;1.40;;
18693;SDS011;9477;51.414;10.362;2022-08-20T02:01:16;1.90;;;1.70;;
18693;SDS011;9477;51.414;10.362;2022-08-20T02:03:21;1.73;;;1.53;;
18693;SDS011;9477;51.414;10.362;2022-08-20T02:05:24;2.77;;;1.70;;
18693;SDS011;9477;51.414;10.362;2022-08-20T02:07:30;1.83;;;1.60;;
18693;SDS011;9477;51.414;10.362;2022-08-20T02:09:35;1.47;;;1.37;;
18693;SDS011;9477;51.414;10.362;2022-08-20T02:11:40;3.63;;;2.00;;
18693;SDS011;9477;51.414;10.362;2022-08-20T02:13:43;2.53;;;1.50;;
18693;SDS011;9477;51.414;10.362;2022-08-20T02:15:46;1.60;;;1.47;;
18693;SDS011;9477;51.414;10.362;2022-08-20T02:17:50;2.13;;;1.77;;
18693;SDS011;9477;51.414;10.362;2022-08-20T02:19:54;3.87;;;1.60;;
18693;SDS011;9477;51.414;10.362;2022-08-20T02:22:02;3.00;;;1.53;;
18693;SDS011;9477;51.414;10.362;2022-08-20T02:24:10;2.87;;;1.50;;
18693;SDS011;9477;51.414;10.362;2022-08-20T02:26:13;2.13;;;1.60;;
18693;SDS011;9477;51.414;10.362;2022-08-20T02:28:19;1.60;;;1.40;;
18693;SDS011;9477;51.414;10.362;2022-08-20T02:30:24;2.77;;;1.57;;
18693;SDS011;9477;51.414;10.362;2022-08-20T02:32:30;2.37;;;1.40;;
18693;SDS011;9477;51.414;10.362;2022-08-20T02:34:35;1.60;;;1.50;;
18693;SDS011;9477;51.414;10.362;2022-08-20T02:36:39;1.83;;;1.33;;
18693;SDS011;9477;51.414;10.362;2022-08-20T02:38:46;2.30;;;1.60;;
18693;SDS011;9477;51.414;10.362;2022-08-20T02:40:49;3.87;;;1.60;;
18693;SDS011;9477;51.414;10.362;2022-08-20T02:42:52;1.50;;;1.40;;
18693;SDS011;9477;51.414;10.362;2022-08-20T02:44:55;2.30;;;1.40;;
18693;SDS011;9477;51.414;10.362;2022-08-20T02:46:58;1.47;;;1.37;;
18693;SDS011;9477;51.414;10.362;2022-08-20T02:49:02;1.60;;;1.50;;
18693;SDS011;9477;51.414;10.362;2022-08-20T02:51:06;1.63;;;1.30;;
18693;SDS011;9477;51.414;10.362;2022-08-20T02:53:10;3.97;;;1.60;;
18693;SDS011;9477;51.414;10.362;2022-08-20T02:55:14;2.47;;;1.40;;
18693;SDS011;9477;51.414;10.362;2022-08-20T02:57:28;3.13;;;1.70;;
18693;SDS011;9477;51.414;10.362;2022-08-20T02:59:31;2.40;;;1.60;;
18693;SDS011;9477;51.414;10.362;2022-08-20T03:01:33;3.57;;;1.60;;
18693;SDS011;9477;51.414;10.362;2022-08-20T03:03:40;1.77;;;1.57;;
18693;SDS011;9477;51.414;10.362;2022-08-20T03:05:44;1.73;;;1.60;;
18693;SDS011;9477;51.414;10.362;2022-08-20T03:07:49;2.97;;;1.60;;
18693;SDS011;9477;51.414;10.362;2022-08-20T03:09:54;2.07;;;1.50;;
18693;SDS011;9477;51.414;10.362;2022-08-20T03:11:57;1.70;;;1.60;;
18693;SDS011;9477;51.414;10.362;2022-08-20T03:14:01;2.23;;;1.70;;
18693;SDS011;9477;51.414;10.362;2022-08-20T03:16:04;3.47;;;3.17;;
18693;SDS011;9477;51.414;10.362;2022-08-20T03:18:07;3.70;;;2.40;;
18693;SDS011;9477;51.414;10.362;2022-08-20T03:20:10;3.50;;;2.30;;
18693;SDS011;9477;51.414;10.362;2022-08-20T03:22:14;2.80;;;2.00;;
18693;SDS011;9477;51.414;10.362;2022-08-20T03:24:18;2.53;;;2.00;;
18693;SDS011;9477;51.414;10.362;2022-08-20T03:26:21;2.97;;;2.20;;
18693;SDS011;9477;51.414;10.362;2022-08-20T03:28:24;3.43;;;2.40;;
18693;SDS011;9477;51.414;10.362;2022-08-20T03:30:27;3.13;;;2.30;;
18693;SDS011;9477;51.414;10.362;2022-08-20T03:32:30;3.50;;;2.40;;
18693;SDS011;9477;51.414;10.362;2022-08-20T03:34:33;5.13;;;2.10;;
18693;SDS011;9477;51.414;10.362;2022-08-20T03:36:36;2.50;;;1.70;;
18693;SDS011;9477;51.414;10.362;2022-08-20T03:38:39;2.33;;;2.10;;
18693;SDS011;9477;51.414;10.362;2022-08-20T03:40:43;4.97;;;2.30;;
18693;SDS011;9477;51.414;10.362;2022-08-20T03:42:46;3.60;;;2.50;;
18693;SDS011;9477;51.414;10.362;2022-08-20T03:44:49;6.63;;;2.30;;
18693;SDS011;9477;51.414;10.362;2022-08-20T03:46:59;3.23;;;2.53;;
18693;SDS011;9477;51.414;10.362;2022-08-20T03:49:07;4.53;;;2.73;;
18693;SDS011;9477;51.414;10.362;2022-08-20T03:51:10;4.30;;;2.60;;
18693;SDS011;9477;51.414;10.362;2022-08-20T03:53:13;4.40;;;2.30;;
18693;SDS011;9477;51.414;10.362;2022-08-20T03:55:17;3.80;;;3.00;;
18693;SDS011;9477;51.414;10.362;2022-08-20T03:57:22;4.20;;;3.10;;
18693;SDS011;9477;51.414;10.362;2022-08-20T03:59:25;5.03;;;3.60;;
18693;SDS011;9477;51.414;10.362;2022-08-20T04:01:28;4.30;;;3.67;;
18693;SDS011;9477;51.414;10.362;2022-08-20T04:03:46;4.13;;;3.73;;
18693;SDS011;9477;51.414;10.362;2022-08-20T04:05:55;5.60;;;4.00;;
18693;SDS011;9477;51.414;10.362;2022-08-20T04:07:59;6.43;;;4.27;;
18693;SDS011;9477;51.414;10.362;2022-08-20T04:10:05;4.77;;;4.37;;
18693;SDS011;9477;51.414;10.362;2022-08-20T04:12:11;5.43;;;4.50;;
18693;SDS011;9477;51.414;10.362;2022-08-20T04:14:15;6.90;;;4.67;;
18693;SDS011;9477;51.414;10.362;2022-08-20T04:16:20;5.50;;;4.00;;
18693;SDS011;9477;51.414;10.362;2022-08-20T04:18:23;7.77;;;4.50;;
18693;SDS011;9477;51.414;10.362;2022-08-20T04:20:27;5.47;;;4.20;;
18693;SDS011;9477;51.414;10.362;2022-08-20T04:22:30;7.40;;;4.90;;
18693;SDS011;9477;51.414;10.362;2022-08-20T04:24:33;5.80;;;4.63;;
18693;SDS011;9477;51.414;10.362;2022-08-20T04:26:37;6.23;;;4.63;;
18693;SDS011;9477;51.414;10.362;2022-08-20T04:28:40;6.83;;;4.37;;
18693;SDS011;9477;51.414;10.362;2022-08-20T04:30:44;7.97;;;5.43;;
18693;SDS011;9477;51.414;10.362;2022-08-20T04:32:52;8.07;;;5.60;;
18693;SDS011;9477;51.414;10.362;2022-08-20T04:34:56;7.77;;;5.10;;
18693;SDS011;9477;51.414;10.362;2022-08-20T04:37:01;6.70;;;5.50;;
18693;SDS011;9477;51.414;10.362;2022-08-20T04:39:04;5.83;;;4.83;;
18693;SDS011;9477;51.414;10.362;2022-08-20T04:41:09;6.17;;;5.10;;
18693;SDS011;9477;51.414;10.362;2022-08-20T04:43:24;6.13;;;5.10;;
18693;SDS011;9477;51.414;10.362;2022-08-20T04:45:28;8.90;;;5.73;;
18693;SDS011;9477;51.414;10.362;2022-08-20T04:47:33;6.20;;;5.60;;
18693;SDS011;9477;51.414;10.362;2022-08-20T04:49:36;7.33;;;5.33;;
18693;SDS011;9477;51.414;10.362;2022-08-20T04:51:39;9.57;;;5.20;;
18693;SDS011;9477;51.414;10.362;2022-08-20T04:53:42;6.43;;;5.77;;
18693;SDS011;9477;51.414;10.362;2022-08-20T04:55:54;7.63;;;6.23;;
18693;SDS011;9477;51.414;10.362;2022-08-20T04:58:02;9.73;;;6.27;;
18693;SDS011;9477;51.414;10.362;2022-08-20T05:00:07;9.17;;;6.50;;
18693;SDS011;9477;51.414;10.362;2022-08-20T05:02:14;11.63;;;6.47;;
18693;SDS011;9477;51.414;10.362;2022-08-20T05:04:20;10.00;;;7.17;;
18693;SDS011;9477;51.414;10.362;2022-08-20T05:06:24;8.50;;;7.60;;
18693;SDS011;9477;51.414;10.362;2022-08-20T05:08:29;13.00;;;8.30;;
18693;SDS011;9477;51.414;10.362;2022-08-20T05:10:32;8.90;;;7.40;;
18693;SDS011;9477;51.414;10.362;2022-08-20T05:12:38;12.43;;;8.27;;
18693;SDS011;9477;51.414;10.362;2022-08-20T05:14:42;12.20;;;8.03;;
18693;SDS011;9477;51.414;10.362;2022-08-20T05:16:45;10.60;;;8.30;;
18693;SDS011;9477;51.414;10.362;2022-08-20T05:18:47;11.17;;;8.30;;
18693;SDS011;9477;51.414;10.362;2022-08-20T05:20:54;10.97;;;8.50;;
18693;SDS011;9477;51.414;10.362;2022-08-20T05:23:01;10.70;;;8.27;;
18693;SDS011;9477;51.414;10.362;2022-08-20T05:25:04;11.57;;;8.40;;
18693;SDS011;9477;51.414;10.362;2022-08-20T05:27:08;10.37;;;8.70;;
18693;SDS011;9477;51.414;10.362;2022-08-20T05:29:24;9.87;;;8.87;;
18693;SDS011;9477;51.414;10.362;2022-08-20T05:31:28;13.20;;;8.97;;
18693;SDS011;9477;51.414;10.362;2022-08-20T05:33:33;9.30;;;8.30;;
18693;SDS011;9477;51.414;10.362;2022-08-20T05:35:38;9.17;;;8.17;;
18693;SDS011;9477;51.414;10.362;2022-08-20T05:37:43;12.83;;;9.03;;
18693;SDS011;9477;51.414;10.362;2022-08-20T05:39:46;9.70;;;8.23;;
18693;SDS011;9477;51.414;10.362;2022-08-20T05:41:49;9.40;;;8.17;;
18693;SDS011;9477;51.414;10.362;2022-08-20T05:43:52;12.97;;;9.00;;
18693;SDS011;9477;51.414;10.362;2022-08-20T05:45:55;13.37;;;8.70;;
18693;SDS011;9477;51.414;10.362;2022-08-20T05:48:02;12.43;;;8.97;;
18693;SDS011;9477;51.414;10.362;2022-08-20T05:50:06;9.33;;;8.23;;
18693;SDS011;9477;51.414;10.362;2022-08-20T05:52:20;11.50;;;9.27;;
18693;SDS011;9477;51.414;10.362;2022-08-20T05:54:24;11.93;;;9.30;;
18693;SDS011;9477;51.414;10.362;2022-08-20T05:56:28;11.70;;;9.27;;
18693;SDS011;9477;51.414;10.362;2022-08-20T05:58:32;11.90;;;9.53;;
18693;SDS011;9477;51.414;10.362;2022-08-20T06:00:35;13.57;;;9.57;;
18693;SDS011;9477;51.414;10.362;2022-08-20T06:02:38;11.70;;;9.70;;
18693;SDS011;9477;51.414;10.362;2022-08-20T06:04:59;12.73;;;9.90;;
18693;SDS011;9477;51.414;10.362;2022-08-20T06:07:03;11.67;;;9.97;;
18693;SDS011;9477;51.414;10.362;2022-08-20T06:09:06;16.53;;;12.87;;
18693;SDS011;9477;51.414;10.362;2022-08-20T06:11:11;14.60;;;11.23;;
18693;SDS011;9477;51.414;10.362;2022-08-20T06:13:13;18.00;;;13.60;;
18693;SDS011;9477;51.414;10.362;2022-08-20T06:15:16;13.70;;;11.80;;
18693;SDS011;9477;51.414;10.362;2022-08-20T06:17:19;15.93;;;11.13;;
18693;SDS011;9477;51.414;10.362;2022-08-20T06:19:22;15.77;;;11.27;;
18693;SDS011;9477;51.414;10.362;2022-08-20T06:21:26;12.77;;;10.53;;
18693;SDS011;9477;51.414;10.362;2022-08-20T06:23:29;15.30;;;11.73;;
18693;SDS011;9477;51.414;10.362;2022-08-20T06:25:52;14.47;;;11.73;;
18693;SDS011;9477;51.414;10.362;2022-08-20T06:27:56;13.30;;;11.90;;
18693;SDS011;9477;51.414;10.362;2022-08-20T06:29:59;15.40;;;12.13;;
18693;SDS011;9477;51.414;10.362;2022-08-20T06:32:02;14.30;;;12.17;;
18693;SDS011;9477;51.414;10.362;2022-08-20T06:34:05;17.63;;;13.10;;
18693;SDS011;9477;51.414;10.362;2022-08-20T06:36:08;17.53;;;12.77;;
18693;SDS011;9477;51.414;10.362;2022-08-20T06:38:11;17.30;;;13.17;;
18693;SDS011;9477;51.414;10.362;2022-08-20T06:40:18;18.50;;;13.13;;
18693;SDS011;9477;51.414;10.362;2022-08-20T06:42:23;15.57;;;13.37;;
18693;SDS011;9477;51.414;10.362;2022-08-20T06:44:27;19.40;;;15.13;;
18693;SDS011;9477;51.414;10.362;2022-08-20T06:46:30;15.83;;;13.27;;
18693;SDS011;9477;51.414;10.362;2022-08-20T06:48:33;19.00;;;13.87;;
18693;SDS011;9477;51.414;10.362;2022-08-20T06:50:38;16.27;;;12.87;;
18693;SDS011;9477;51.414;10.362;2022-08-20T06:52:48;16.07;;;13.73;;
18693;SDS011;9477;51.414;10.362;2022-08-20T06:55:04;16.03;;;13.00;;
18693;SDS011;9477;51.414;10.362;2022-08-20T06:57:08;15.40;;;13.60;;
18693;SDS011;9477;51.414;10.362;2022-08-20T06:59:11;20.73;;;15.60;;
18693;SDS011;9477;51.414;10.362;2022-08-20T07:01:15;18.30;;;14.83;;
18693;SDS011;9477;51.414;10.362;2022-08-20T07:03:21;23.17;;;16.47;;
18693;SDS011;9477;51.414;10.362;2022-08-20T07:05:24;19.20;;;15.80;;
18693;SDS011;9477;51.414;10.362;2022-08-20T07:07:26;19.23;;;15.67;;
18693;SDS011;9477;51.414;10.362;2022-08-20T07:09:29;22.00;;;16.33;;
18693;SDS011;9477;51.414;10.362;2022-08-20T07:11:32;18.60;;;15.60;;
18693;SDS011;9477;51.414;10.362;2022-08-20T07:13:35;18.03;;;15.33;;
18693;SDS011;9477;51.414;10.362;2022-08-20T07:15:38;21.43;;;15.57;;
18693;SDS011;9477;51.414;10.362;2022-08-20T07:17:46;19.93;;;14.80;;
18693;SDS011;9477;51.414;10.362;2022-08-20T07:19:51;17.37;;;14.67;;
18693;SDS011;9477;51.414;10.362;2022-08-20T07:21:54;17.17;;;14.43;;
18693;SDS011;9477;51.414;10.362;2022-08-20T07:23:56;20.03;;;15.17;;
18693;SDS011;9477;51.414;10.362;2022-08-20T07:25:59;19.60;;;15.40;;
18693;SDS011;9477;51.414;10.362;2022-08-20T07:28:04;20.83;;;16.13;;
18693;SDS011;9477;51.414;10.362;2022-08-20T07:30:09;21.03;;;16.00;;
18693;SDS011;9477;51.414;10.362;2022-08-20T07:32:31;19.50;;;15.70;;
18693;SDS011;9477;51.414;10.362;2022-08-20T07:34:41;22.00;;;16.43;;
18693;SDS011;9477;51.414;10.362;2022-08-20T07:36:45;21.17;;;16.60;;
18693;SDS011;9477;51.414;10.362;2022-08-20T07:38:50;20.90;;;15.10;;
18693;SDS011;9477;51.414;10.362;2022-08-20T07:40:54;18.63;;;15.87;;
18693;SDS011;9477;51.414;10.362;2022-08-20T07:42:58;21.50;;;16.70;;
18693;SDS011;9477;51.414;10.362;2022-08-20T07:45:02;19.00;;;16.53;;
18693;SDS011;9477;51.414;10.362;2022-08-20T07:47:06;20.37;;;16.60;;
18693;SDS011;9477;51.414;10.362;2022-08-20T07:49:09;20.43;;;15.60;;
18693;SDS011;9477;51.414;10.362;2022-08-20T07:51:13;24.47;;;17.03;;
18693;SDS011;9477;51.414;10.362;2022-08-20T07:53:17;20.83;;;16.73;;
18693;SDS011;9477;51.414;10.362;2022-08-20T07:55:20;19.93;;;15.87;;
18693;SDS011;9477;51.414;10.362;2022-08-20T07:57:23;17.63;;;14.87;;
18693;SDS011;9477;51.414;10.362;2022-08-20T07:59:26;19.97;;;14.93;;
18693;SDS011;9477;51.414;10.362;2022-08-20T08:01:30;20.10;;;15.40;;
18693;SDS011;9477;51.414;10.362;2022-08-20T08:03:33;20.17;;;14.67;;
18693;SDS011;9477;51.414;10.362;2022-08-20T08:05:50;17.90;;;13.50;;
18693;SDS011;9477;51.414;10.362;2022-08-20T08:07:54;22.37;;;15.87;;
18693;SDS011;9477;51.414;10.362;2022-08-20T08:09:57;18.53;;;15.00;;
18693;SDS011;9477;51.414;10.362;2022-08-20T08:12:02;19.87;;;15.83;;
18693;SDS011;9477;51.414;10.362;2022-08-20T08:14:06;17.33;;;14.33;;
18693;SDS011;9477;51.414;10.362;2022-08-20T08:16:10;20.00;;;15.90;;
18693;SDS011;9477;51.414;10.362;2022-08-20T08:18:15;24.40;;;16.33;;
18693;SDS011;9477;51.414;10.362;2022-08-20T08:20:21;19.03;;;15.83;;
18693;SDS011;9477;51.414;10.362;2022-08-20T08:22:24;19.87;;;16.13;;
18693;SDS011;9477;51.414;10.362;2022-08-20T08:24:28;19.73;;;14.30;;
18693;SDS011;9477;51.414;10.362;2022-08-20T08:26:31;21.23;;;15.80;;
18693;SDS011;9477;51.414;10.362;2022-08-20T08:28:34;19.43;;;14.23;;
18693;SDS011;9477;51.414;10.362;2022-08-20T08:30:37;18.40;;;14.90;;
18693;SDS011;9477;51.414;10.362;2022-08-20T08:32:40;20.83;;;15.77;;
18693;SDS011;9477;51.414;10.362;2022-08-20T08:35:05;18.50;;;13.20;;
18693;SDS011;9477;51.414;10.362;2022-08-20T08:37:09;17.20;;;13.50;;
18693;SDS011;9477;51.414;10.362;2022-08-20T08:39:11;16.77;;;13.40;;
18693;SDS011;9477;51.414;10.362;2022-08-20T08:41:16;19.20;;;13.27;;
18693;SDS011;9477;51.414;10.362;2022-08-20T08:43:23;23.93;;;13.23;;
18693;SDS011;9477;51.414;10.362;2022-08-20T08:45:33;20.57;;;13.10;;
18693;SDS011;9477;51.414;10.362;2022-08-20T08:47:43;22.07;;;12.47;;
18693;SDS011;9477;51.414;10.362;2022-08-20T08:49:47;18.93;;;13.93;;
18693;SDS011;9477;51.414;10.362;2022-08-20T08:51:50;16.98;;;13.75;;
18693;SDS011;9477;51.414;10.362;2022-08-20T08:53:57;19.33;;;13.38;;
18693;SDS011;9477;51.414;10.362;2022-08-20T08:56:07;20.77;;;14.02;;
18693;SDS011;9477;51.414;10.362;2022-08-20T08:58:12;21.30;;;15.70;;
18693;SDS011;9477;51.414;10.362;2022-08-20T09:00:18;24.45;;;18.92;;
18693;SDS011;9477;51.414;10.362;2022-08-20T09:02:23;27.47;;;20.63;;
18693;SDS011;9477;51.414;10.362;2022-08-20T09:04:28;24.30;;;20.40;;
18693;SDS011;9477;51.414;10.362;2022-08-20T09:06:33;28.43;;;20.60;;
18693;SDS011;9477;51.414;10.362;2022-08-20T09:08:38;26.60;;;20.50;;
18693;SDS011;9477;51.414;10.362;2022-08-20T09:10:46;23.80;;;19.77;;
18693;SDS011;9477;51.414;10.362;2022-08-20T09:12:49;28.33;;;20.50;;
18693;SDS011;9477;51.414;10.362;2022-08-20T09:14:56;23.63;;;19.70;;
18693;SDS011;9477;51.414;10.362;2022-08-20T09:16:58;26.13;;;20.07;;
18693;SDS011;9477;51.414;10.362;2022-08-20T09:19:01;26.53;;;20.27;;
18693;SDS011;9477;51.414;10.362;2022-08-20T09:21:04;24.00;;;20.60;;
18693;SDS011;9477;51.414;10.362;2022-08-20T09:23:07;23.97;;;20.60;;
18693;SDS011;9477;51.414;10.362;2022-08-20T09:25:10;22.93;;;18.57;;
18693;SDS011;9477;51.414;10.362;2022-08-20T09:27:13;21.77;;;18.37;;
18693;SDS011;9477;51.414;10.362;2022-08-20T09:29:16;22.77;;;18.17;;
18693;SDS011;9477;51.414;10.362;2022-08-20T09:31:20;22.30;;;18.63;;
18693;SDS011;9477;51.414;10.362;2022-08-20T09:33:24;24.30;;;17.10;;
18693;SDS011;9477;51.414;10.362;2022-08-20T09:35:27;22.37;;;16.73;;
18693;SDS011;9477;51.414;10.362;2022-08-20T09:37:31;21.33;;;17.00;;
18693;SDS011;9477;51.414;10.362;2022-08-20T09:39:38;19.48;;;16.08;;
18693;SDS011;9477;51.414;10.362;2022-08-20T09:41:41;20.57;;;15.47;;
18693;SDS011;9477;51.414;10.362;2022-08-20T09:43:44;16.85;;;14.50;;
18693;SDS011;9477;51.414;10.362;2022-08-20T09:45:47;18.08;;;14.75;;
18693;SDS011;9477;51.414;10.362;2022-08-20T09:47:51;17.23;;;14.97;;
18693;SDS011;9477;51.414;10.362;2022-08-20T09:49:57;17.83;;;13.63;;
18693;SDS011;9477;51.414;10.362;2022-08-20T09:52:00;17.05;;;14.05;;
18693;SDS011;9477;51.414;10.362;2022-08-20T09:54:04;18.15;;;14.57;;
18693;SDS011;9477;51.414;10.362;2022-08-20T09:56:07;14.77;;;12.52;;
18693;SDS011;9477;51.414;10.362;2022-08-20T09:58:11;14.18;;;11.52;;
18693;SDS011;9477;51.414;10.362;2022-08-20T10:00:20;13.53;;;12.13;;
18693;SDS011;9477;51.414;10.362;2022-08-20T10:02:23;13.13;;;11.20;;
18693;SDS011;9477;51.414;10.362;2022-08-20T10:04:27;12.88;;;11.18;;
18693;SDS011;9477;51.414;10.362;2022-08-20T10:06:30;11.93;;;10.50;;
18693;SDS011;9477;51.414;10.362;2022-08-20T10:08:37;13.65;;;11.18;;
18693;SDS011;9477;51.414;10.362;2022-08-20T10:10:40;12.85;;;11.55;;
18693;SDS011;9477;51.414;10.362;2022-08-20T10:12:43;14.75;;;11.80;;
18693;SDS011;9477;51.414;10.362;2022-08-20T10:14:50;13.60;;;11.50;;
18693;SDS011;9477;51.414;10.362;2022-08-20T10:16:54;12.43;;;10.85;;
18693;SDS011;9477;51.414;10.362;2022-08-20T10:19:00;11.63;;;10.27;;
18693;SDS011;9477;51.414;10.362;2022-08-20T10:21:08;12.68;;;10.00;;
18693;SDS011;9477;51.414;10.362;2022-08-20T10:23:12;14.70;;;12.07;;
18693;SDS011;9477;51.414;10.362;2022-08-20T10:25:14;12.43;;;10.30;;
18693;SDS011;9477;51.414;10.362;2022-08-20T10:27:17;12.15;;;9.98;;
18693;SDS011;9477;51.414;10.362;2022-08-20T10:29:20;11.38;;;10.02;;
18693;SDS011;9477;51.414;10.362;2022-08-20T10:31:23;11.18;;;9.45;;
18693;SDS011;9477;51.414;10.362;2022-08-20T10:33:26;13.13;;;10.48;;
18693;SDS011;9477;51.414;10.362;2022-08-20T10:35:29;12.77;;;10.82;;
18693;SDS011;9477;51.414;10.362;2022-08-20T10:37:33;12.40;;;10.68;;
18693;SDS011;9477;51.414;10.362;2022-08-20T10:39:36;11.57;;;9.57;;
18693;SDS011;9477;51.414;10.362;2022-08-20T10:41:39;11.75;;;9.45;;
18693;SDS011;9477;51.414;10.362;2022-08-20T10:43:42;11.13;;;9.23;;
18693;SDS011;9477;51.414;10.362;2022-08-20T10:45:45;11.25;;;9.25;;
18693;SDS011;9477;51.414;10.362;2022-08-20T10:47:48;10.32;;;9.27;;
18693;SDS011;9477;51.414;10.362;2022-08-20T10:49:52;11.70;;;9.75;;
18693;SDS011;9477;51.414;10.362;2022-08-20T10:51:56;10.52;;;9.45;;
18693;SDS011;9477;51.414;10.362;2022-08-20T10:54:01;10.38;;;9.07;;
18693;SDS011;9477;51.414;10.362;2022-08-20T10:56:12;10.15;;;9.02;;
18693;SDS011;9477;51.414;10.362;2022-08-20T10:58:16;10.30;;;8.18;;
18693;SDS011;9477;51.414;10.362;2022-08-20T11:00:20;10.35;;;9.18;;
18693;SDS011;9477;51.414;10.362;2022-08-20T11:02:23;12.52;;;9.13;;
18693;SDS011;9477;51.414;10.362;2022-08-20T11:04:27;10.82;;;8.70;;
18693;SDS011;9477;51.414;10.362;2022-08-20T11:06:29;8.45;;;7.57;;
18693;SDS011;9477;51.414;10.362;2022-08-20T11:08:32;11.50;;;7.90;;
18693;SDS011;9477;51.414;10.362;2022-08-20T11:10:38;9.48;;;7.95;;
18693;SDS011;9477;51.414;10.362;2022-08-20T11:12:41;8.40;;;7.55;;
18693;SDS011;9477;51.414;10.362;2022-08-20T11:14:46;10.02;;;7.90;;
18693;SDS011;9477;51.414;10.362;2022-08-20T11:16:50;9.35;;;7.93;;
18693;SDS011;9477;51.414;10.362;2022-08-20T11:18:52;10.30;;;8.50;;
18693;SDS011;9477;51.414;10.362;2022-08-20T11:20:55;9.48;;;8.50;;
18693;SDS011;9477;51.414;10.362;2022-08-20T11:22:58;9.55;;;7.70;;
18693;SDS011;9477;51.414;10.362;2022-08-20T11:25:01;10.63;;;8.07;;
18693;SDS011;9477;51.414;10.362;2022-08-20T11:27:06;10.07;;;8.25;;
18693;SDS011;9477;51.414;10.362;2022-08-20T11:29:10;10.07;;;8.52;;
18693;SDS011;9477;51.414;10.362;2022-08-20T11:31:13;8.27;;;6.90;;
18693;SDS011;9477;51.414;10.362;2022-08-20T11:33:16;8.13;;;7.32;;
18693;SDS011;9477;51.414;10.362;2022-08-20T11:35:23;9.88;;;8.10;;
18693;SDS011;9477;51.414;10.362;2022-08-20T11:37:47;9.30;;;7.75;;
18693;SDS011;9477;51.414;10.362;2022-08-20T11:39:50;8.07;;;7.25;;
18693;SDS011;9477;51.414;10.362;2022-08-20T11:41:53;9.30;;;6.88;;
18693;SDS011;9477;51.414;10.362;2022-08-20T11:43:57;7.65;;;5.85;;
18693;SDS011;9477;51.414;10.362;2022-08-20T11:46:20;5.90;;;5.30;;
18693;SDS011;9477;51.414;10.362;2022-08-20T11:48:29;5.85;;;5.10;;
18693;SDS011;9477;51.414;10.362;2022-08-20T11:50:32;5.63;;;4.15;;
18693;SDS011;9477;51.414;10.362;2022-08-20T11:52:35;7.35;;;4.90;;
18693;SDS011;9477;51.414;10.362;2022-08-20T11:54:38;5.70;;;4.82;;
18693;SDS011;9477;51.414;10.362;2022-08-20T11:56:44;5.90;;;4.90;;
18693;SDS011;9477;51.414;10.362;2022-08-20T11:58:47;5.22;;;4.53;;
18693;SDS011;9477;51.414;10.362;2022-08-20T12:00:51;8.68;;;4.40;;
18693;SDS011;9477;51.414;10.362;2022-08-20T12:02:54;4.85;;;4.20;;
18693;SDS011;9477;51.414;10.362;2022-08-20T12:05:00;6.57;;;4.63;;
18693;SDS011;9477;51.414;10.362;2022-08-20T12:07:06;5.35;;;4.60;;
18693;SDS011;9477;51.414;10.362;2022-08-20T12:09:11;6.90;;;5.25;;
18693;SDS011;9477;51.414;10.362;2022-08-20T12:11:13;5.93;;;5.32;;
18693;SDS011;9477;51.414;10.362;2022-08-20T12:13:16;6.00;;;5.40;;
18693;SDS011;9477;51.414;10.362;2022-08-20T12:15:24;4.80;;;4.40;;
18693;SDS011;9477;51.414;10.362;2022-08-20T12:17:29;5.03;;;4.55;;
18693;SDS011;9477;51.414;10.362;2022-08-20T12:19:35;6.28;;;5.47;;
18693;SDS011;9477;51.414;10.362;2022-08-20T12:21:38;7.28;;;6.57;;
18693;SDS011;9477;51.414;10.362;2022-08-20T12:23:43;9.45;;;7.85;;